Time;durP1;ratioP1;P1;durP2;ratioP2;P2;SDS_P1;SDS_P2;PMS_P1;PMS_P2;Temp;Humidity;BMP_temperature;BMP_pressure;BME280_temperature;BME280_humidity;BME280_pressure;Samples;Min_cycle;Max_cycle;Signal;HPM_P1;HPM_P2
2022/03/30 00:02:15;;;;;;;38.92;21.63;;;;;;;;;;5086278;28;20048;-80
2022/03/30 00:04:41;;;;;;;41.58;21.38;;;;;;;;;;5101352;28;20036;-79
2022/03/30 00:07:14;;;;;;;45.53;21.35;;;;;;;;;;5103778;28;20075;-79
2022/03/30 00:09:40;;;;;;;50.63;22.75;;;;;;;;;;5087927;28;20040;-80
2022/03/30 00:12:06;;;;;;;50.85;21.95;;;;;;;;;;5081949;28;20086;-79
2022/03/30 00:14:32;;;;;;;45.92;20.88;;;;;;;;;;5081076;28;20039;-79
2022/03/30 00:16:58;;;;;;;49.78;21.70;;;;;;;;;;5112588;27;20041;-80
2022/03/30 00:19:24;;;;;;;37.45;20.00;;;;;;;;;;5102170;27;20075;-79
2022/03/30 00:21:51;;;;;;;38.78;20.98;;;;;;;;;;5085724;28;20116;-79
2022/03/30 00:24:17;;;;;;;46.58;20.85;;;;;;;;;;5070354;28;20497;-82
2022/03/30 00:26:43;;;;;;;41.15;19.63;;;;;;;;;;5070198;28;20047;-79
2022/03/30 00:29:09;;;;;;;40.40;20.15;;;;;;;;;;5085747;28;20471;-79
2022/03/30 00:31:35;;;;;;;44.17;19.27;;;;;;;;;;5084626;28;20036;-79
2022/03/30 00:34:01;;;;;;;43.17;20.15;;;;;;;;;;5086353;28;20726;-81
2022/03/30 00:36:27;;;;;;;39.60;20.58;;;;;;;;;;5086609;28;20127;-81
2022/03/30 00:38:53;;;;;;;45.92;21.15;;;;;;;;;;5083404;28;20070;-81
2022/03/30 00:41:19;;;;;;;34.65;19.33;;;;;;;;;;5054695;28;20048;-80
2022/03/30 00:43:45;;;;;;;51.67;19.10;;;;;;;;;;5085459;28;20050;-79
2022/03/30 00:46:12;;;;;;;41.30;18.92;;;;;;;;;;5088256;28;20449;-80
2022/03/30 00:48:38;;;;;;;38.28;18.15;;;;;;;;;;5089499;28;20184;-79
2022/03/30 00:51:04;;;;;;;35.03;19.67;;;;;;;;;;5102826;28;20040;-79
2022/03/30 00:53:30;;;;;;;38.60;19.15;;;;;;;;;;5077086;28;20123;-82
2022/03/30 00:55:56;;;;;;;45.03;19.40;;;;;;;;;;5083428;28;20036;-80
2022/03/30 00:58:23;;;;;;;43.10;19.58;;;;;;;;;;5084488;28;20070;-80
2022/03/30 01:00:49;;;;;;;51.15;20.08;;;;;;;;;;5081934;28;20090;-80
2022/03/30 01:03:16;;;;;;;35.03;18.80;;;;;;;;;;5067572;28;20051;-82
2022/03/30 01:05:42;;;;;;;44.47;19.33;;;;;;;;;;5053202;28;20040;-80
2022/03/30 01:08:08;;;;;;;40.08;19.48;;;;;;;;;;5080313;28;20127;-80
2022/03/30 01:10:34;;;;;;;41.70;20.02;;;;;;;;;;5083630;28;20048;-79
2022/03/30 01:13:02;;;;;;;44.28;18.83;;;;;;;;;;5052287;28;20561;-81
2022/03/30 01:15:28;;;;;;;38.15;18.48;;;;;;;;;;5068789;28;20048;-81
2022/03/30 01:17:54;;;;;;;38.67;17.83;;;;;;;;;;5068214;28;20051;-81
2022/03/30 01:20:22;;;;;;;41.42;19.38;;;;;;;;;;5069672;28;20048;-80
2022/03/30 01:22:49;;;;;;;35.63;17.52;;;;;;;;;;5102742;28;20040;-79
2022/03/30 01:25:15;;;;;;;43.30;18.15;;;;;;;;;;5071306;28;20052;-79
2022/03/30 01:27:41;;;;;;;51.50;19.38;;;;;;;;;;5068855;28;20044;-79
2022/03/30 01:32:53;;;;;;;42.15;18.67;;;;;;;;;;5087740;28;20083;-80
2022/03/30 01:35:19;;;;;;;43.92;19.90;;;;;;;;;;5106329;27;20048;-79
2022/03/30 01:37:45;;;;;;;46.70;20.15;;;;;;;;;;5105081;28;20036;-79
2022/03/30 01:40:12;;;;;;;45.47;19.80;;;;;;;;;;5089095;28;20048;-79
2022/03/30 01:42:38;;;;;;;38.65;20.02;;;;;;;;;;5103795;27;20040;-79
2022/03/30 01:45:04;;;;;;;40.13;19.73;;;;;;;;;;5088172;28;20382;-80
2022/03/30 01:47:31;;;;;;;46.53;21.83;;;;;;;;;;5072265;28;20048;-80
2022/03/30 01:49:57;;;;;;;43.47;21.65;;;;;;;;;;5072049;28;20045;-80
2022/03/30 01:52:23;;;;;;;44.88;21.38;;;;;;;;;;5072872;28;20126;-80
2022/03/30 01:54:49;;;;;;;41.50;22.38;;;;;;;;;;5088842;28;20535;-80
2022/03/30 01:57:16;;;;;;;44.58;23.17;;;;;;;;;;5069020;28;20048;-80
2022/03/30 01:59:43;;;;;;;39.63;20.67;;;;;;;;;;5073842;28;20075;-80
2022/03/30 02:02:10;;;;;;;45.38;23.20;;;;;;;;;;5100650;28;20054;-79
2022/03/30 02:04:37;;;;;;;44.55;22.48;;;;;;;;;;5087766;28;20068;-80
2022/03/30 02:07:04;;;;;;;41.45;23.00;;;;;;;;;;5087840;28;20044;-80
2022/03/30 02:09:30;;;;;;;41.83;21.50;;;;;;;;;;5072609;28;20487;-82
2022/03/30 02:11:56;;;;;;;44.60;22.42;;;;;;;;;;5120940;27;20044;-81
2022/03/30 02:14:22;;;;;;;46.55;22.90;;;;;;;;;;5088650;28;20044;-83
2022/03/30 02:16:49;;;;;;;52.80;23.80;;;;;;;;;;5070415;28;20398;-80
2022/03/30 02:19:15;;;;;;;49.00;23.20;;;;;;;;;;5116178;27;20058;-80
2022/03/30 02:21:41;;;;;;;49.15;23.05;;;;;;;;;;5069402;28;20040;-79
2022/03/30 02:24:07;;;;;;;50.10;23.08;;;;;;;;;;5089267;27;20766;-81
2022/03/30 02:26:33;;;;;;;52.83;23.55;;;;;;;;;;5053688;28;20123;-80
2022/03/30 02:28:59;;;;;;;43.88;23.05;;;;;;;;;;5071401;28;20114;-83
2022/03/30 02:31:26;;;;;;;50.40;23.17;;;;;;;;;;5089641;27;20138;-80
2022/03/30 02:33:52;;;;;;;46.80;22.88;;;;;;;;;;5089108;28;20122;-80
2022/03/30 02:36:18;;;;;;;50.97;24.10;;;;;;;;;;5086877;28;20044;-82
2022/03/30 02:38:44;;;;;;;44.05;22.52;;;;;;;;;;5086461;28;20474;-81
2022/03/30 02:41:11;;;;;;;38.53;21.08;;;;;;;;;;5086401;28;20043;-80
2022/03/30 02:43:38;;;;;;;25.75;14.07;;;;;;;;;;5071702;28;20410;-80
2022/03/30 02:46:04;;;;;;;26.50;12.95;;;;;;;;;;5088852;28;20048;-82
2022/03/30 02:48:32;;;;;;;25.48;12.88;;;;;;;;;;5089211;28;20100;-82
2022/03/30 02:51:04;;;;;;;17.60;9.55;;;;;;;;;;5088332;28;20085;-80
2022/03/30 02:53:30;;;;;;;13.68;6.30;;;;;;;;;;5070735;28;20079;-84
2022/03/30 02:55:56;;;;;;;7.88;3.65;;;;;;;;;;5072159;28;20046;-82
2022/03/30 02:58:23;;;;;;;6.93;4.00;;;;;;;;;;5069960;28;20055;-81
2022/03/30 03:00:49;;;;;;;9.20;3.60;;;;;;;;;;5070117;28;20483;-80
2022/03/30 03:03:15;;;;;;;5.90;3.08;;;;;;;;;;5073642;28;20057;-81
2022/03/30 03:05:42;;;;;;;7.07;2.13;;;;;;;;;;5070088;28;20498;-81
2022/03/30 03:08:09;;;;;;;2.40;1.60;;;;;;;;;;5070438;28;20056;-81
2022/03/30 03:10:39;;;;;;;6.50;1.30;;;;;;;;;;5070116;28;20501;-81
2022/03/30 03:13:05;;;;;;;2.13;1.00;;;;;;;;;;5102325;27;20391;-81
2022/03/30 03:15:32;;;;;;;5.75;1.10;;;;;;;;;;5072350;28;20050;-82
2022/03/30 03:17:58;;;;;;;2.25;0.75;;;;;;;;;;5086021;28;20044;-82
2022/03/30 03:20:25;;;;;;;4.32;1.40;;;;;;;;;;5065698;28;20119;-80
2022/03/30 03:22:51;;;;;;;4.00;0.75;;;;;;;;;;5070216;28;20047;-80
2022/03/30 03:25:17;;;;;;;4.80;1.00;;;;;;;;;;5071848;28;20093;-81
2022/03/30 03:27:43;;;;;;;4.20;0.68;;;;;;;;;;5068462;28;20055;-80
2022/03/30 03:30:10;;;;;;;1.58;1.00;;;;;;;;;;5085907;28;20129;-81
2022/03/30 03:32:36;;;;;;;2.72;0.60;;;;;;;;;;5103838;27;20047;-81
2022/03/30 03:35:03;;;;;;;1.70;0.63;;;;;;;;;;5064118;28;20040;-81
2022/03/30 03:37:29;;;;;;;1.48;0.60;;;;;;;;;;5071157;28;21596;-82
2022/03/30 03:39:55;;;;;;;4.47;0.60;;;;;;;;;;5086166;28;20150;-84
2022/03/30 03:42:21;;;;;;;1.92;0.50;;;;;;;;;;5102901;27;20050;-82
2022/03/30 03:44:47;;;;;;;2.55;0.68;;;;;;;;;;5072694;28;20125;-81
2022/03/30 03:47:14;;;;;;;0.93;0.68;;;;;;;;;;5086348;28;20134;-82
2022/03/30 03:49:40;;;;;;;2.75;0.52;;;;;;;;;;5053869;28;20101;-81
2022/03/30 03:52:07;;;;;;;3.10;0.70;;;;;;;;;;5066801;28;20044;-82
2022/03/30 03:54:33;;;;;;;0.95;0.65;;;;;;;;;;5070707;28;20059;-82
2022/03/30 03:57:00;;;;;;;3.20;0.57;;;;;;;;;;5067539;28;20346;-82
2022/03/30 03:59:26;;;;;;;4.75;0.57;;;;;;;;;;5053241;28;20088;-84
2022/03/30 04:01:52;;;;;;;2.15;0.70;;;;;;;;;;5085685;28;20058;-81
2022/03/30 04:04:18;;;;;;;1.40;0.45;;;;;;;;;;5102079;27;20094;-81
2022/03/30 04:06:45;;;;;;;1.50;0.50;;;;;;;;;;5086351;28;20040;-81
2022/03/30 04:09:11;;;;;;;1.15;0.47;;;;;;;;;;5070052;28;20493;-82
2022/03/30 04:11:37;;;;;;;5.47;0.60;;;;;;;;;;5086142;28;20040;-81
2022/03/30 04:14:03;;;;;;;1.67;0.40;;;;;;;;;;5086623;28;20524;-81
2022/03/30 04:16:30;;;;;;;3.97;0.60;;;;;;;;;;5101394;27;20340;-81
2022/03/30 04:18:56;;;;;;;2.25;0.30;;;;;;;;;;5085693;28;20396;-84
2022/03/30 04:21:22;;;;;;;1.98;0.50;;;;;;;;;;5083802;28;20043;-82
2022/03/30 04:23:48;;;;;;;1.95;0.40;;;;;;;;;;5086068;28;20051;-81
2022/03/30 04:26:14;;;;;;;0.75;0.40;;;;;;;;;;5084616;28;20043;-81
2022/03/30 04:28:40;;;;;;;5.13;0.50;;;;;;;;;;5084607;28;20048;-81
2022/03/30 04:31:07;;;;;;;2.55;0.50;;;;;;;;;;5102924;27;20052;-80
2022/03/30 04:33:34;;;;;;;3.13;0.70;;;;;;;;;;5068163;28;20046;-79
2022/03/30 04:36:00;;;;;;;2.45;0.55;;;;;;;;;;5098502;28;20494;-80
2022/03/30 04:38:26;;;;;;;2.47;0.68;;;;;;;;;;5051473;28;20114;-84
2022/03/30 04:40:52;;;;;;;1.48;0.55;;;;;;;;;;5084701;28;20040;-79
2022/03/30 04:43:18;;;;;;;5.68;1.05;;;;;;;;;;5084629;28;20108;-79
2022/03/30 04:45:44;;;;;;;1.83;0.63;;;;;;;;;;5083438;28;20047;-79
2022/03/30 04:48:11;;;;;;;4.72;0.90;;;;;;;;;;5084908;28;20161;-80
2022/03/30 04:50:37;;;;;;;4.47;0.90;;;;;;;;;;5083918;28;20247;-81
2022/03/30 04:53:04;;;;;;;4.57;1.05;;;;;;;;;;5067211;28;20079;-79
2022/03/30 04:55:31;;;;;;;4.75;0.93;;;;;;;;;;5086629;28;20085;-81
2022/03/30 04:57:57;;;;;;;3.13;2.05;;;;;;;;;;5064838;28;21230;-79
2022/03/30 05:00:23;;;;;;;1.98;1.05;;;;;;;;;;5087026;28;20044;-75
2022/03/30 05:02:49;;;;;;;2.92;1.00;;;;;;;;;;5083105;28;20644;-75
2022/03/30 05:05:16;;;;;;;2.22;1.02;;;;;;;;;;5116520;27;20048;-75
2022/03/30 05:07:42;;;;;;;1.02;0.77;;;;;;;;;;5085514;28;20757;-78
2022/03/30 05:10:12;;;;;;;2.75;1.00;;;;;;;;;;5049374;28;20098;-76
2022/03/30 05:12:38;;;;;;;4.68;1.10;;;;;;;;;;5083325;28;20044;-75
2022/03/30 05:15:04;;;;;;;2.70;1.20;;;;;;;;;;5084962;28;20480;-74
2022/03/30 05:17:30;;;;;;;5.53;1.20;;;;;;;;;;5084272;28;20123;-75
2022/03/30 05:19:57;;;;;;;5.13;1.30;;;;;;;;;;5084241;28;20489;-74
2022/03/30 05:22:23;;;;;;;6.20;1.88;;;;;;;;;;5090670;28;20040;-77
2022/03/30 05:24:49;;;;;;;2.22;1.00;;;;;;;;;;5098710;28;20450;-76
2022/03/30 05:27:15;;;;;;;4.57;1.35;;;;;;;;;;5083113;28;20375;-75
2022/03/30 05:29:41;;;;;;;3.70;1.30;;;;;;;;;;5068718;28;20391;-78
2022/03/30 05:32:07;;;;;;;2.08;1.15;;;;;;;;;;5082877;28;20045;-75
2022/03/30 05:34:33;;;;;;;4.53;1.38;;;;;;;;;;5085386;28;20043;-75
2022/03/30 05:36:59;;;;;;;5.93;1.33;;;;;;;;;;5069825;28;20073;-76
2022/03/30 05:39:26;;;;;;;3.22;1.27;;;;;;;;;;5088367;28;20047;-77
2022/03/30 05:41:54;;;;;;;5.22;1.30;;;;;;;;;;5082592;28;20048;-80
2022/03/30 05:44:20;;;;;;;7.90;1.45;;;;;;;;;;5092818;28;20517;-80
2022/03/30 05:46:47;;;;;;;4.65;1.40;;;;;;;;;;5054192;28;20058;-81
2022/03/30 05:49:13;;;;;;;3.50;1.65;;;;;;;;;;5075220;28;20048;-80
2022/03/30 05:51:39;;;;;;;2.95;1.40;;;;;;;;;;5057103;28;20075;-84
2022/03/30 05:54:05;;;;;;;5.43;1.73;;;;;;;;;;5056374;28;20059;-81
2022/03/30 05:59:16;;;;;;;3.85;1.30;;;;;;;;;;5088793;28;20056;-81
2022/03/30 06:01:42;;;;;;;7.63;1.67;;;;;;;;;;5059028;28;20040;-81
2022/03/30 06:04:08;;;;;;;6.47;2.05;;;;;;;;;;5071948;28;20062;-81
2022/03/30 06:06:34;;;;;;;4.50;1.98;;;;;;;;;;5077116;28;20062;-79
2022/03/30 06:09:01;;;;;;;7.05;2.08;;;;;;;;;;5078028;28;20068;-78
2022/03/30 06:11:27;;;;;;;6.80;1.90;;;;;;;;;;5086782;28;20036;-77
2022/03/30 06:13:53;;;;;;;4.00;1.90;;;;;;;;;;5088523;28;20076;-76
2022/03/30 06:16:19;;;;;;;6.45;1.90;;;;;;;;;;5069661;28;20044;-76
2022/03/30 06:18:45;;;;;;;4.32;1.83;;;;;;;;;;5086687;28;20479;-76
2022/03/30 06:21:11;;;;;;;3.25;1.90;;;;;;;;;;5074203;28;20032;-79
2022/03/30 06:23:37;;;;;;;4.85;1.70;;;;;;;;;;5076704;28;20401;-76
2022/03/30 06:26:05;;;;;;;2.67;1.88;;;;;;;;;;5071474;28;20036;-76
2022/03/30 06:28:31;;;;;;;4.55;1.67;;;;;;;;;;5102062;27;20123;-76
2022/03/30 06:30:57;;;;;;;3.78;1.92;;;;;;;;;;5106909;27;20044;-76
2022/03/30 06:33:23;;;;;;;4.70;1.60;;;;;;;;;;5076970;28;20063;-81
2022/03/30 06:35:49;;;;;;;5.75;2.00;;;;;;;;;;5089178;28;20466;-75
2022/03/30 06:38:15;;;;;;;4.20;1.80;;;;;;;;;;5115126;27;20175;-73
2022/03/30 06:40:47;;;;;;;7.07;2.00;;;;;;;;;;5115640;27;20052;-74
2022/03/30 06:43:16;;;;;;;9.30;2.50;;;;;;;;;;5071559;28;20080;-74
2022/03/30 06:45:44;;;;;;;7.63;1.70;;;;;;;;;;5061059;28;20042;-75
2022/03/30 06:48:11;;;;;;;7.80;1.77;;;;;;;;;;5080355;28;20491;-76
2022/03/30 06:50:37;;;;;;;3.83;1.83;;;;;;;;;;5083594;28;20419;-76
2022/03/30 06:53:05;;;;;;;6.03;1.38;;;;;;;;;;5084294;28;20441;-75
2022/03/30 06:55:31;;;;;;;4.57;1.33;;;;;;;;;;5074299;28;20055;-75
2022/03/30 06:57:57;;;;;;;6.55;1.40;;;;;;;;;;5071450;28;20446;-76
2022/03/30 07:00:23;;;;;;;5.35;1.58;;;;;;;;;;5071476;28;20085;-76
2022/03/30 07:02:52;;;;;;;4.80;1.67;;;;;;;;;;5083114;28;20093;-75
2022/03/30 07:05:18;;;;;;;4.38;1.70;;;;;;;;;;5062628;28;20072;-74
2022/03/30 07:10:31;;;;;;;2.45;1.50;;;;;;;;;;5081669;28;20051;-75
2022/03/30 07:12:57;;;;;;;5.72;1.70;;;;;;;;;;5096723;28;20052;-74
2022/03/30 07:15:23;;;;;;;8.68;1.88;;;;;;;;;;5101515;28;20091;-75
2022/03/30 07:17:53;;;;;;;4.63;1.90;;;;;;;;;;5075496;28;20051;-75
2022/03/30 07:20:21;;;;;;;6.97;2.08;;;;;;;;;;5084845;28;20083;-76
2022/03/30 07:22:47;;;;;;;3.05;1.55;;;;;;;;;;5073073;28;20472;-74
2022/03/30 07:25:14;;;;;;;6.57;1.80;;;;;;;;;;5091533;28;20044;-74
2022/03/30 07:27:41;;;;;;;6.25;2.00;;;;;;;;;;5069490;28;20494;-75
2022/03/30 07:30:08;;;;;;;4.25;1.30;;;;;;;;;;5097104;28;20181;-75
2022/03/30 07:32:34;;;;;;;7.68;1.88;;;;;;;;;;5090768;28;20047;-76
2022/03/30 07:35:01;;;;;;;10.23;2.22;;;;;;;;;;5074293;28;20126;-84
2022/03/30 07:37:27;;;;;;;6.45;1.83;;;;;;;;;;5089476;28;20047;-81
2022/03/30 07:39:53;;;;;;;9.40;1.70;;;;;;;;;;5072723;28;20040;-81
2022/03/30 07:42:19;;;;;;;7.15;1.70;;;;;;;;;;5089995;28;20044;-80
2022/03/30 07:44:45;;;;;;;5.32;1.58;;;;;;;;;;5090485;28;20044;-74
2022/03/30 07:47:11;;;;;;;9.52;1.52;;;;;;;;;;5088932;28;20048;-74
2022/03/30 07:49:37;;;;;;;4.20;0.98;;;;;;;;;;5070692;28;20071;-78
2022/03/30 07:52:04;;;;;;;5.60;1.27;;;;;;;;;;5070621;28;20051;-73
2022/03/30 07:54:30;;;;;;;4.18;1.35;;;;;;;;;;5073970;28;20094;-75
2022/03/30 07:56:57;;;;;;;5.07;1.17;;;;;;;;;;5087744;28;20067;-74
2022/03/30 07:59:23;;;;;;;5.13;1.38;;;;;;;;;;5096923;27;20061;-75
2022/03/30 08:01:49;;;;;;;10.90;1.40;;;;;;;;;;5112067;27;20056;-77
2022/03/30 08:04:16;;;;;;;6.15;1.23;;;;;;;;;;5080368;28;20148;-75
2022/03/30 08:06:42;;;;;;;5.43;1.17;;;;;;;;;;5068790;28;20044;-75
2022/03/30 08:09:09;;;;;;;8.38;1.63;;;;;;;;;;5085637;28;20078;-78
2022/03/30 08:11:35;;;;;;;6.43;1.20;;;;;;;;;;5068152;28;20054;-74
2022/03/30 08:14:01;;;;;;;3.53;1.10;;;;;;;;;;5088275;28;20044;-74
2022/03/30 08:16:27;;;;;;;4.45;1.27;;;;;;;;;;5088285;28;20036;-74
2022/03/30 08:18:53;;;;;;;3.53;1.00;;;;;;;;;;5071828;28;20390;-74
2022/03/30 08:24:04;;;;;;;5.25;1.02;;;;;;;;;;5087919;28;20044;-74
2022/03/30 08:26:31;;;;;;;4.35;0.93;;;;;;;;;;5071691;28;20505;-75
2022/03/30 08:28:57;;;;;;;5.65;0.82;;;;;;;;;;5072369;28;20533;-75
2022/03/30 08:31:23;;;;;;;7.13;1.55;;;;;;;;;;5072321;28;20536;-74
2022/03/30 08:33:49;;;;;;;5.07;1.00;;;;;;;;;;5071578;28;20032;-75
2022/03/30 08:36:16;;;;;;;8.52;1.23;;;;;;;;;;5070131;28;20080;-75
2022/03/30 08:38:42;;;;;;;6.30;0.93;;;;;;;;;;5072817;28;20044;-74
2022/03/30 08:41:09;;;;;;;6.28;1.10;;;;;;;;;;5071743;28;20048;-75
2022/03/30 08:43:35;;;;;;;7.00;1.20;;;;;;;;;;5072155;28;20101;-75
2022/03/30 08:46:02;;;;;;;6.90;1.13;;;;;;;;;;5072067;28;20043;-77
2022/03/30 08:48:29;;;;;;;1.98;0.63;;;;;;;;;;5088161;28;20068;-75
2022/03/30 08:50:56;;;;;;;3.60;0.90;;;;;;;;;;5071581;28;20410;-75
2022/03/30 08:53:25;;;;;;;5.63;1.00;;;;;;;;;;5071311;28;20044;-75
2022/03/30 08:55:51;;;;;;;4.07;0.70;;;;;;;;;;5087974;28;20039;-75
2022/03/30 08:58:17;;;;;;;4.20;0.77;;;;;;;;;;5088043;28;20160;-74
2022/03/30 09:00:43;;;;;;;5.93;0.95;;;;;;;;;;5088345;28;20511;-74
2022/03/30 09:03:09;;;;;;;5.10;0.60;;;;;;;;;;5073394;28;20044;-74
2022/03/30 09:05:38;;;;;;;9.25;0.82;;;;;;;;;;5085823;28;20043;-79
2022/03/30 09:08:15;;;;;;;3.35;0.70;;;;;;;;;;5070619;28;20048;-74
2022/03/30 09:10:43;;;;;;;3.10;0.80;;;;;;;;;;5086408;28;20127;-75
2022/03/30 09:13:09;;;;;;;6.75;0.90;;;;;;;;;;5071060;28;20082;-76
2022/03/30 09:15:37;;;;;;;9.30;1.35;;;;;;;;;;5088476;28;20045;-74
2022/03/30 09:18:05;;;;;;;3.90;0.70;;;;;;;;;;5087283;28;20048;-74
2022/03/30 09:20:31;;;;;;;3.58;0.80;;;;;;;;;;5067125;28;20044;-77
2022/03/30 09:22:58;;;;;;;4.03;0.82;;;;;;;;;;5085076;28;20040;-76
2022/03/30 09:25:29;;;;;;;7.82;0.60;;;;;;;;;;5087830;28;20044;-75
2022/03/30 09:27:57;;;;;;;2.00;0.50;;;;;;;;;;5069922;28;20048;-76
2022/03/30 09:30:24;;;;;;;4.80;0.95;;;;;;;;;;5085174;28;20040;-76
2022/03/30 09:32:52;;;;;;;2.35;0.57;;;;;;;;;;5086828;28;20123;-74
2022/03/30 09:35:38;;;;;;;5.35;0.68;;;;;;;;;;5069650;28;20240;-74
2022/03/30 09:38:09;;;;;;;2.63;0.55;;;;;;;;;;5070725;28;20051;-75
2022/03/30 09:40:36;;;;;;;7.07;0.50;;;;;;;;;;5069914;28;20044;-74
2022/03/30 09:43:13;;;;;;;2.85;0.77;;;;;;;;;;5087748;28;20089;-74
2022/03/30 09:45:39;;;;;;;4.18;0.57;;;;;;;;;;5087392;28;20096;-74
2022/03/30 09:48:16;;;;;;;2.67;0.43;;;;;;;;;;5085489;28;20064;-74
2022/03/30 09:50:46;;;;;;;5.68;0.70;;;;;;;;;;5068728;28;20054;-76
2022/03/30 09:53:13;;;;;;;10.32;1.05;;;;;;;;;;5071660;28;20052;-77
2022/03/30 09:55:53;;;;;;;4.20;0.80;;;;;;;;;;5073197;28;20048;-76
2022/03/30 09:58:21;;;;;;;4.85;0.95;;;;;;;;;;5088669;28;20060;-76
2022/03/30 10:01:03;;;;;;;2.75;0.50;;;;;;;;;;5091584;28;20090;-74
2022/03/30 10:03:42;;;;;;;6.22;0.65;;;;;;;;;;5091638;28;20381;-76
2022/03/30 10:06:12;;;;;;;5.68;0.80;;;;;;;;;;5090844;28;20056;-77
2022/03/30 10:08:46;;;;;;;6.15;0.98;;;;;;;;;;5091787;28;20047;-78
2022/03/30 10:11:15;;;;;;;3.65;0.93;;;;;;;;;;5091095;28;20105;-81
2022/03/30 10:13:41;;;;;;;4.10;0.55;;;;;;;;;;5091361;28;20040;-75
2022/03/30 10:16:10;;;;;;;2.92;0.57;;;;;;;;;;5074183;28;20551;-76
2022/03/30 10:18:37;;;;;;;8.77;0.68;;;;;;;;;;5091245;28;20559;-77
2022/03/30 10:21:19;;;;;;;2.50;0.47;;;;;;;;;;5087667;28;20044;-80
2022/03/30 10:23:52;;;;;;;4.97;0.70;;;;;;;;;;5090920;28;20056;-79
2022/03/30 10:26:38;;;;;;;3.92;0.70;;;;;;;;;;5073248;28;20131;-78
2022/03/30 10:29:16;;;;;;;3.97;0.60;;;;;;;;;;5106515;28;20066;-77
2022/03/30 10:31:42;;;;;;;2.40;0.47;;;;;;;;;;5089116;28;20048;-77
2022/03/30 10:34:25;;;;;;;4.40;0.75;;;;;;;;;;5075541;28;20048;-78
2022/03/30 10:37:09;;;;;;;3.35;0.75;;;;;;;;;;5089801;28;20445;-76
2022/03/30 10:39:36;;;;;;;2.00;0.73;;;;;;;;;;5088568;28;20474;-75
2022/03/30 10:42:07;;;;;;;2.63;0.68;;;;;;;;;;5090467;28;20390;-77
2022/03/30 10:44:36;;;;;;;4.65;0.60;;;;;;;;;;5092056;28;20032;-76
2022/03/30 10:47:06;;;;;;;4.28;0.88;;;;;;;;;;5089576;28;20040;-77
2022/03/30 10:49:37;;;;;;;4.45;0.70;;;;;;;;;;5073452;28;20055;-77
2022/03/30 10:52:22;;;;;;;5.85;0.77;;;;;;;;;;5072750;28;20097;-76
2022/03/30 10:54:50;;;;;;;4.70;0.73;;;;;;;;;;5089635;28;20079;-78
2022/03/30 10:57:36;;;;;;;2.38;0.57;;;;;;;;;;5073045;28;20044;-76
2022/03/30 11:00:16;;;;;;;2.78;0.88;;;;;;;;;;5072948;28;20052;-76
2022/03/30 11:02:42;;;;;;;2.70;0.68;;;;;;;;;;5089957;28;20047;-77
2022/03/30 11:05:09;;;;;;;7.20;0.90;;;;;;;;;;5088685;28;20773;-78
2022/03/30 11:07:35;;;;;;;5.43;0.80;;;;;;;;;;5073470;28;20479;-79
2022/03/30 11:10:14;;;;;;;6.57;1.10;;;;;;;;;;5090453;28;20039;-83
2022/03/30 11:12:59;;;;;;;6.25;0.80;;;;;;;;;;5090006;28;20066;-75
2022/03/30 11:15:25;;;;;;;3.97;0.90;;;;;;;;;;5089651;28;20047;-75
2022/03/30 11:17:51;;;;;;;1.95;0.77;;;;;;;;;;5090585;28;20079;-74
2022/03/30 11:20:19;;;;;;;4.05;1.13;;;;;;;;;;5074032;28;20047;-73
2022/03/30 11:22:47;;;;;;;5.03;1.02;;;;;;;;;;5090974;28;20052;-74
2022/03/30 11:25:14;;;;;;;3.75;0.90;;;;;;;;;;5090106;28;20059;-73
2022/03/30 11:27:44;;;;;;;5.03;0.85;;;;;;;;;;5074275;28;20043;-75
2022/03/30 11:30:14;;;;;;;2.53;0.80;;;;;;;;;;5073190;28;20067;-74
2022/03/30 11:32:42;;;;;;;5.55;0.90;;;;;;;;;;5089313;28;20604;-76
2022/03/30 11:35:10;;;;;;;3.72;0.80;;;;;;;;;;5072129;28;20454;-78
2022/03/30 11:37:47;;;;;;;5.53;0.68;;;;;;;;;;5091240;28;20040;-76
2022/03/30 11:40:15;;;;;;;2.75;0.65;;;;;;;;;;5087255;28;20046;-76
2022/03/30 11:42:44;;;;;;;7.53;1.33;;;;;;;;;;5073061;28;20044;-76
2022/03/30 11:45:15;;;;;;;4.60;0.60;;;;;;;;;;5073880;28;20036;-76
2022/03/30 11:47:42;;;;;;;5.15;0.93;;;;;;;;;;5057308;28;20063;-75
2022/03/30 11:50:08;;;;;;;6.45;1.13;;;;;;;;;;5073078;28;20048;-77
2022/03/30 11:52:34;;;;;;;4.93;0.68;;;;;;;;;;5089279;28;20039;-76
2022/03/30 11:55:00;;;;;;;3.22;0.80;;;;;;;;;;5072933;28;20065;-76
2022/03/30 11:57:26;;;;;;;8.18;1.10;;;;;;;;;;5069662;28;20360;-77
2022/03/30 11:59:57;;;;;;;2.80;0.70;;;;;;;;;;5089470;28;20390;-76
2022/03/30 12:02:25;;;;;;;9.43;1.02;;;;;;;;;;5073001;28;20040;-77
2022/03/30 12:04:51;;;;;;;4.43;0.70;;;;;;;;;;5090171;28;20043;-76
2022/03/30 12:07:19;;;;;;;2.92;0.50;;;;;;;;;;5088852;28;20044;-76
2022/03/30 12:09:49;;;;;;;1.83;0.57;;;;;;;;;;5089327;28;20052;-76
2022/03/30 12:12:35;;;;;;;5.75;1.00;;;;;;;;;;5072229;28;20054;-75
2022/03/30 12:15:08;;;;;;;2.47;0.70;;;;;;;;;;5089733;28;20114;-75
2022/03/30 12:17:34;;;;;;;4.07;0.77;;;;;;;;;;5088879;28;20111;-75
2022/03/30 12:20:01;;;;;;;4.63;0.63;;;;;;;;;;5087746;28;20048;-76
2022/03/30 12:22:28;;;;;;;3.97;0.55;;;;;;;;;;5088609;28;20478;-76
2022/03/30 12:24:54;;;;;;;5.07;1.00;;;;;;;;;;5070081;28;20040;-77
2022/03/30 12:27:20;;;;;;;3.88;0.60;;;;;;;;;;5053986;28;20067;-77
2022/03/30 12:29:46;;;;;;;5.82;0.70;;;;;;;;;;5072470;28;20039;-76
2022/03/30 12:32:15;;;;;;;4.63;0.75;;;;;;;;;;5072336;28;20071;-76
2022/03/30 12:34:41;;;;;;;7.68;1.45;;;;;;;;;;5089401;28;20257;-76
2022/03/30 12:37:08;;;;;;;4.22;0.98;;;;;;;;;;5071300;28;20040;-81
2022/03/30 12:39:35;;;;;;;5.15;0.90;;;;;;;;;;5072601;28;20130;-76
2022/03/30 12:42:02;;;;;;;2.88;0.55;;;;;;;;;;5087000;28;20036;-78
2022/03/30 12:44:29;;;;;;;6.45;1.13;;;;;;;;;;5087734;28;20048;-76
2022/03/30 12:46:58;;;;;;;6.13;1.13;;;;;;;;;;5089557;28;20040;-75
2022/03/30 12:49:34;;;;;;;4.15;0.63;;;;;;;;;;5072318;28;20050;-77
2022/03/30 12:52:04;;;;;;;3.90;0.80;;;;;;;;;;5071019;28;20040;-76
2022/03/30 12:54:30;;;;;;;3.92;0.55;;;;;;;;;;5054333;28;20047;-77
2022/03/30 12:56:57;;;;;;;3.33;0.50;;;;;;;;;;5085723;28;20040;-83
2022/03/30 12:59:25;;;;;;;2.70;0.90;;;;;;;;;;5067791;28;20059;-80
2022/03/30 13:01:51;;;;;;;3.78;0.88;;;;;;;;;;5086133;28;20117;-79
2022/03/30 13:04:25;;;;;;;5.10;1.00;;;;;;;;;;5068491;28;20051;-76
2022/03/30 13:06:51;;;;;;;;;;;;;;;;;;5103168;28;20488;-76
2022/03/30 13:09:18;;;;;;;5.10;1.35;;;;;;;;;;5085846;28;19920;-76
2022/03/30 13:11:49;;;;;;;4.95;0.73;;;;;;;;;;5053896;28;20505;-76
2022/03/30 13:14:19;;;;;;;3.95;0.60;;;;;;;;;;5070018;28;20109;-76
2022/03/30 13:16:44;;;;;;;;;;;;;;;;;;5088094;28;20052;-77
2022/03/30 13:19:12;;;;;;;3.22;0.55;;;;;;;;;;5087456;28;19926;-77
2022/03/30 13:21:40;;;;;;;5.80;0.80;;;;;;;;;;5087813;28;20056;-76
2022/03/30 13:24:10;;;;;;;3.00;0.70;;;;;;;;;;5071814;28;20081;-77
2022/03/30 13:26:37;;;;;;;4.40;0.90;;;;;;;;;;5089944;28;20887;-77
2022/03/30 13:29:04;;;;;;;5.57;1.00;;;;;;;;;;5092760;28;20436;-79
2022/03/30 13:31:30;;;;;;;3.53;0.90;;;;;;;;;;5095901;28;20729;-78
2022/03/30 13:34:00;;;;;;;5.07;1.27;;;;;;;;;;5091835;28;20481;-75
2022/03/30 13:36:26;;;;;;;5.07;0.77;;;;;;;;;;5089893;28;20912;-77
2022/03/30 13:38:54;;;;;;;4.40;1.10;;;;;;;;;;5074626;28;20461;-77
2022/03/30 13:41:21;;;;;;;4.72;1.10;;;;;;;;;;5089325;28;20468;-77
2022/03/30 13:43:47;;;;;;;3.25;0.63;;;;;;;;;;5072863;28;20453;-76
2022/03/30 13:46:14;;;;;;;5.63;1.00;;;;;;;;;;5089226;28;20531;-77
2022/03/30 13:48:40;;;;;;;6.55;1.10;;;;;;;;;;5089057;28;20456;-75
2022/03/30 13:51:07;;;;;;;4.93;1.03;;;;;;;;;;5072159;28;21004;-77
2022/03/30 13:53:36;;;;;;;5.40;0.90;;;;;;;;;;5073861;28;20421;-76
2022/03/30 13:56:02;;;;;;;5.70;1.00;;;;;;;;;;5088536;28;20773;-74
2022/03/30 13:58:30;;;;;;;4.03;1.00;;;;;;;;;;5089527;28;20980;-75
2022/03/30 14:00:56;;;;;;;4.80;1.05;;;;;;;;;;5095385;28;20426;-79
2022/03/30 14:03:23;;;;;;;3.78;0.90;;;;;;;;;;5077086;28;20426;-78
2022/03/30 14:05:49;;;;;;;5.25;1.17;;;;;;;;;;5055174;28;20447;-75
2022/03/30 14:08:15;;;;;;;3.72;0.80;;;;;;;;;;5089254;28;20490;-75
2022/03/30 14:10:42;;;;;;;4.33;0.90;;;;;;;;;;5088214;27;20498;-75
2022/03/30 14:13:09;;;;;;;4.85;0.90;;;;;;;;;;5071734;28;20426;-78
2022/03/30 14:15:35;;;;;;;4.97;0.90;;;;;;;;;;5088412;28;20445;-77
2022/03/30 14:18:01;;;;;;;5.95;1.00;;;;;;;;;;5072983;28;20425;-75
2022/03/30 14:20:27;;;;;;;4.88;1.08;;;;;;;;;;5089368;28;20417;-75
2022/03/30 14:22:53;;;;;;;3.78;0.80;;;;;;;;;;5088051;28;20426;-79
2022/03/30 14:25:20;;;;;;;4.55;0.93;;;;;;;;;;5105399;28;20501;-80
2022/03/30 14:27:46;;;;;;;4.60;1.10;;;;;;;;;;5088703;28;20429;-79
2022/03/30 14:30:14;;;;;;;4.43;0.88;;;;;;;;;;5072846;28;20432;-79
2022/03/30 14:32:43;;;;;;;3.50;0.82;;;;;;;;;;5072354;28;20433;-79
2022/03/30 14:35:10;;;;;;;6.03;0.95;;;;;;;;;;5072223;28;20523;-79
2022/03/30 14:37:37;;;;;;;7.05;1.00;;;;;;;;;;5082788;28;20445;-80
2022/03/30 14:40:04;;;;;;;4.97;1.00;;;;;;;;;;5080638;28;20508;-82
2022/03/30 14:42:30;;;;;;;6.30;1.15;;;;;;;;;;5066521;28;20430;-78
2022/03/30 14:44:56;;;;;;;7.57;0.95;;;;;;;;;;5087528;28;20459;-80
2022/03/30 14:47:22;;;;;;;6.10;1.20;;;;;;;;;;5070556;28;20413;-76
2022/03/30 14:49:48;;;;;;;4.70;0.80;;;;;;;;;;5066443;28;20507;-78
2022/03/30 14:52:15;;;;;;;4.45;0.82;;;;;;;;;;5071605;28;20916;-77